Time;durP1;ratioP1;P1;durP2;ratioP2;P2;SDS_P1;SDS_P2;PMS_P1;PMS_P2;Temp;Humidity;BMP_temperature;BMP_pressure;BME280_temperature;BME280_humidity;BME280_pressure;Samples;Min_cycle;Max_cycle;Signal;HPM_P1;HPM_P2
2023/09/12 00:00:51;;;;;;;14.48;12.88;;;;;;;;;;2072130;28;20027;-87
2023/09/12 00:02:10;;;;;;;14.98;12.63;;;;;;;;;;2068168;28;20035;-88
2023/09/12 00:03:29;;;;;;;19.30;13.50;;;;;;;;;;2059727;28;20027;-87
2023/09/12 00:04:50;;;;;;;17.10;12.68;;;;;;;;;;2072900;28;20022;-88
2023/09/12 00:06:09;;;;;;;17.63;13.60;;;;;;;;;;2068880;28;20493;-87
2023/09/12 00:07:28;;;;;;;16.83;13.38;;;;;;;;;;2073806;28;20053;-86
2023/09/12 00:08:48;;;;;;;17.15;14.07;;;;;;;;;;2069485;28;20026;-84
2023/09/12 00:10:07;;;;;;;18.00;15.02;;;;;;;;;;2072738;28;20431;-85
2023/09/12 00:11:26;;;;;;;15.07;13.48;;;;;;;;;;2067283;28;20027;-85
2023/09/12 00:12:45;;;;;;;16.95;14.52;;;;;;;;;;2073848;28;20030;-84
2023/09/12 00:14:04;;;;;;;17.13;13.90;;;;;;;;;;2072561;28;20462;-84
2023/09/12 00:15:23;;;;;;;16.88;14.38;;;;;;;;;;2064138;28;20026;-83
2023/09/12 00:16:46;;;;;;;18.75;14.75;;;;;;;;;;2073044;28;20038;-84
2023/09/12 00:18:05;;;;;;;15.70;13.93;;;;;;;;;;2076313;28;20037;-81
2023/09/12 00:19:24;;;;;;;17.98;14.85;;;;;;;;;;2070671;28;20026;-79
2023/09/12 00:20:43;;;;;;;16.35;13.93;;;;;;;;;;2066112;28;20030;-82
2023/09/12 00:22:03;;;;;;;17.63;14.80;;;;;;;;;;2068714;28;20037;-85
2023/09/12 00:23:25;;;;;;;14.90;13.35;;;;;;;;;;2074049;28;20901;-86
2023/09/12 00:24:44;;;;;;;16.90;13.50;;;;;;;;;;2079236;28;20022;-85
2023/09/12 00:26:03;;;;;;;18.63;14.48;;;;;;;;;;2069453;28;20111;-85
2023/09/12 00:27:22;;;;;;;17.13;14.70;;;;;;;;;;2069398;28;20022;-81
2023/09/12 00:28:41;;;;;;;17.05;14.60;;;;;;;;;;2072883;28;20022;-83
2023/09/12 00:30:00;;;;;;;16.83;14.63;;;;;;;;;;2069072;28;20582;-87
2023/09/12 00:31:19;;;;;;;18.23;15.68;;;;;;;;;;2070557;28;21178;-86
2023/09/12 00:32:38;;;;;;;20.40;15.25;;;;;;;;;;2062710;28;20046;-86
2023/09/12 00:33:57;;;;;;;17.65;14.25;;;;;;;;;;2072876;28;20061;-86
2023/09/12 00:35:16;;;;;;;18.58;14.73;;;;;;;;;;2077383;28;20033;-85
2023/09/12 00:36:37;;;;;;;16.83;14.10;;;;;;;;;;2078031;28;20495;-84
2023/09/12 00:37:57;;;;;;;19.38;15.05;;;;;;;;;;2078554;28;20021;-85
2023/09/12 00:39:16;;;;;;;18.23;15.02;;;;;;;;;;2075948;28;20033;-86
2023/09/12 00:40:35;;;;;;;19.13;14.82;;;;;;;;;;2079543;28;20041;-85
2023/09/12 00:41:54;;;;;;;16.42;14.48;;;;;;;;;;2077465;28;20485;-85
2023/09/12 00:43:13;;;;;;;17.10;14.13;;;;;;;;;;2077278;28;20026;-87
2023/09/12 00:44:32;;;;;;;17.63;13.88;;;;;;;;;;2078244;28;20038;-85
2023/09/12 00:45:51;;;;;;;15.50;13.73;;;;;;;;;;2075998;28;20474;-85
2023/09/12 00:47:11;;;;;;;19.38;14.90;;;;;;;;;;2077111;28;20022;-87
2023/09/12 00:48:30;;;;;;;16.63;14.13;;;;;;;;;;2074688;28;20041;-84
2023/09/12 00:49:50;;;;;;;20.40;15.30;;;;;;;;;;2075573;28;20037;-89
2023/09/12 00:51:10;;;;;;;16.27;13.90;;;;;;;;;;2071025;28;20114;-85
2023/09/12 00:52:29;;;;;;;18.80;15.35;;;;;;;;;;2066915;28;20030;-84
2023/09/12 00:53:48;;;;;;;18.58;15.05;;;;;;;;;;2070449;28;20026;-84
2023/09/12 00:55:09;;;;;;;23.50;15.75;;;;;;;;;;2058118;28;20587;-84
2023/09/12 00:56:28;;;;;;;18.92;14.65;;;;;;;;;;2072161;28;20030;-82
2023/09/12 00:57:47;;;;;;;20.65;16.25;;;;;;;;;;2078271;28;20029;-85
2023/09/12 00:59:06;;;;;;;20.02;15.80;;;;;;;;;;2078750;28;20414;-88
2023/09/12 01:00:25;;;;;;;20.58;15.65;;;;;;;;;;2066088;28;20039;-84
2023/09/12 01:01:45;;;;;;;19.48;15.50;;;;;;;;;;2069357;28;20042;-80
2023/09/12 01:03:04;;;;;;;18.25;15.27;;;;;;;;;;2069795;28;20030;-85
2023/09/12 01:04:23;;;;;;;19.17;15.73;;;;;;;;;;2076491;28;20483;-86
2023/09/12 01:05:43;;;;;;;24.65;16.23;;;;;;;;;;2075621;28;20441;-85
2023/09/12 01:07:03;;;;;;;17.85;14.65;;;;;;;;;;2076537;28;20022;-84
2023/09/12 01:08:22;;;;;;;22.17;16.23;;;;;;;;;;2068292;28;20022;-83
2023/09/12 01:09:41;;;;;;;18.63;15.40;;;;;;;;;;2074463;28;20037;-87
2023/09/12 01:10:59;;;;;;;19.83;16.15;;;;;;;;;;2076418;28;20030;-87
2023/09/12 01:12:19;;;;;;;21.10;15.85;;;;;;;;;;2077259;28;20439;-88
2023/09/12 01:13:37;;;;;;;16.42;14.32;;;;;;;;;;2074424;28;20495;-83
2023/09/12 01:14:56;;;;;;;18.33;15.40;;;;;;;;;;2069025;28;20049;-84
2023/09/12 01:16:15;;;;;;;18.05;14.25;;;;;;;;;;2075306;28;20033;-85
2023/09/12 01:17:34;;;;;;;19.58;15.13;;;;;;;;;;2077810;28;20034;-85
2023/09/12 01:18:53;;;;;;;16.48;14.32;;;;;;;;;;2074984;28;20026;-87
2023/09/12 01:20:35;;;;;;;17.30;14.23;;;;;;;;;;2077150;28;20132;-88
2023/09/12 01:22:13;;;;;;;19.17;13.80;;;;;;;;;;2077804;28;20041;-86
2023/09/12 01:23:45;;;;;;;17.52;13.75;;;;;;;;;;2075713;28;20033;-85
2023/09/12 01:25:22;;;;;;;16.65;13.57;;;;;;;;;;2065622;28;20026;-85
2023/09/12 01:26:58;;;;;;;17.92;12.90;;;;;;;;;;2076506;28;20025;-88
2023/09/12 01:28:17;;;;;;;16.08;13.40;;;;;;;;;;2076826;28;20042;-82
2023/09/12 01:29:37;;;;;;;13.95;12.45;;;;;;;;;;2077825;28;20018;-86
2023/09/12 01:31:00;;;;;;;16.23;13.70;;;;;;;;;;2076711;28;20379;-87
2023/09/12 01:32:20;;;;;;;18.63;13.65;;;;;;;;;;2070711;28;20022;-87
2023/09/12 01:33:39;;;;;;;15.63;13.20;;;;;;;;;;2075892;28;20033;-89
2023/09/12 01:34:59;;;;;;;16.92;12.75;;;;;;;;;;2075758;28;20038;-88
2023/09/12 01:36:17;;;;;;;15.35;13.68;;;;;;;;;;2077714;28;20026;-89
2023/09/12 01:37:36;;;;;;;13.95;12.55;;;;;;;;;;2071298;28;20081;-85
2023/09/12 01:38:56;;;;;;;15.63;12.93;;;;;;;;;;2062610;28;20022;-82
2023/09/12 01:40:17;;;;;;;14.48;12.27;;;;;;;;;;2068380;28;20109;-86
2023/09/12 01:41:40;;;;;;;13.30;12.00;;;;;;;;;;2073488;28;20029;-84
2023/09/12 01:43:00;;;;;;;13.65;12.27;;;;;;;;;;2078111;28;20065;-84
2023/09/12 01:44:22;;;;;;;14.52;11.80;;;;;;;;;;2076890;28;20487;-84
2023/09/12 01:45:42;;;;;;;12.95;11.55;;;;;;;;;;2073427;28;20054;-85
2023/09/12 01:47:03;;;;;;;14.25;12.15;;;;;;;;;;2068807;28;20031;-86
2023/09/12 01:48:24;;;;;;;13.10;11.52;;;;;;;;;;2073996;28;20018;-84
2023/09/12 01:49:47;;;;;;;12.13;10.93;;;;;;;;;;2068972;28;20031;-83
2023/09/12 01:51:07;;;;;;;13.90;11.00;;;;;;;;;;2073496;28;20030;-82
2023/09/12 01:52:26;;;;;;;17.05;10.93;;;;;;;;;;2078738;28;20744;-84
2023/09/12 01:53:46;;;;;;;13.07;9.65;;;;;;;;;;2076487;28;20033;-83
2023/09/12 01:55:06;;;;;;;11.02;10.00;;;;;;;;;;2068670;28;20457;-85
2023/09/12 01:56:25;;;;;;;12.13;10.65;;;;;;;;;;2074687;28;20037;-84
2023/09/12 01:57:44;;;;;;;12.20;10.18;;;;;;;;;;2080348;28;20037;-83
2023/09/12 01:59:03;;;;;;;11.30;10.30;;;;;;;;;;2065380;28;20023;-82
2023/09/12 02:00:23;;;;;;;11.45;10.23;;;;;;;;;;2074135;28;20033;-83
2023/09/12 02:01:42;;;;;;;10.52;9.65;;;;;;;;;;2077246;28;20026;-85
2023/09/12 02:03:01;;;;;;;11.38;10.38;;;;;;;;;;2069357;28;20033;-83
2023/09/12 02:04:20;;;;;;;11.48;10.35;;;;;;;;;;2063218;28;20027;-86
2023/09/12 02:05:40;;;;;;;15.55;10.20;;;;;;;;;;2076627;28;20030;-86
2023/09/12 02:06:59;;;;;;;11.45;10.35;;;;;;;;;;2066220;28;20022;-87
2023/09/12 02:08:18;;;;;;;11.00;9.93;;;;;;;;;;2070225;28;20022;-82
2023/09/12 02:09:37;;;;;;;11.75;10.68;;;;;;;;;;2062963;28;20097;-81
2023/09/12 02:10:56;;;;;;;11.57;10.02;;;;;;;;;;2075347;28;20034;-80
2023/09/12 02:12:15;;;;;;;10.75;9.82;;;;;;;;;;2076019;28;20104;-85
2023/09/12 02:13:34;;;;;;;11.57;10.55;;;;;;;;;;2078682;28;20021;-86
2023/09/12 02:14:53;;;;;;;10.85;9.93;;;;;;;;;;2075189;28;20407;-86
2023/09/12 02:16:12;;;;;;;11.32;10.23;;;;;;;;;;2070973;28;20034;-85
2023/09/12 02:17:31;;;;;;;10.18;9.27;;;;;;;;;;2067599;28;20042;-86
2023/09/12 02:18:50;;;;;;;10.90;9.48;;;;;;;;;;2073943;28;20068;-86
2023/09/12 02:20:10;;;;;;;14.55;10.07;;;;;;;;;;2074185;28;20038;-85
2023/09/12 02:21:29;;;;;;;12.50;9.38;;;;;;;;;;2075893;28;20439;-85
2023/09/12 02:22:48;;;;;;;14.23;10.13;;;;;;;;;;2068157;28;20030;-84
2023/09/12 02:24:06;;;;;;;11.52;10.25;;;;;;;;;;2075180;28;20046;-85
2023/09/12 02:25:25;;;;;;;11.80;10.63;;;;;;;;;;2076343;28;20030;-85
2023/09/12 02:26:44;;;;;;;10.30;9.40;;;;;;;;;;2079538;28;20038;-87
2023/09/12 02:28:03;;;;;;;12.00;10.38;;;;;;;;;;2076008;28;20026;-83
2023/09/12 02:29:22;;;;;;;9.85;8.95;;;;;;;;;;2070882;28;20053;-83
2023/09/12 02:30:41;;;;;;;10.40;9.45;;;;;;;;;;2066494;28;20587;-83
2023/09/12 02:32:00;;;;;;;10.25;9.35;;;;;;;;;;2069931;28;20057;-86
2023/09/12 02:33:19;;;;;;;11.13;10.07;;;;;;;;;;2067260;28;20026;-84
2023/09/12 02:34:37;;;;;;;9.27;8.57;;;;;;;;;;2063266;28;20038;-81
2023/09/12 02:35:56;;;;;;;9.82;8.95;;;;;;;;;;2071488;28;20038;-84
2023/09/12 02:37:16;;;;;;;10.20;9.35;;;;;;;;;;2072440;28;20038;-82
2023/09/12 02:38:35;;;;;;;12.77;10.07;;;;;;;;;;2075799;28;20026;-83
2023/09/12 02:39:54;;;;;;;9.93;9.13;;;;;;;;;;2071838;28;20026;-83
2023/09/12 02:41:12;;;;;;;10.60;9.65;;;;;;;;;;2074203;28;20021;-87
2023/09/12 02:42:32;;;;;;;11.05;10.10;;;;;;;;;;2065579;28;20701;-86
2023/09/12 02:43:51;;;;;;;11.65;9.48;;;;;;;;;;2070596;28;20038;-83
2023/09/12 02:45:10;;;;;;;11.38;10.38;;;;;;;;;;2074350;28;20491;-86
2023/09/12 02:46:29;;;;;;;13.70;9.80;;;;;;;;;;2072535;28;20042;-85
2023/09/12 02:47:48;;;;;;;11.25;10.23;;;;;;;;;;2078178;28;20426;-84
2023/09/12 02:49:07;;;;;;;10.57;9.57;;;;;;;;;;2076472;28;20058;-86
2023/09/12 02:50:26;;;;;;;12.57;9.07;;;;;;;;;;2076128;28;20109;-83
2023/09/12 02:51:45;;;;;;;14.50;10.13;;;;;;;;;;2079798;28;20029;-87
2023/09/12 02:53:04;;;;;;;11.43;10.27;;;;;;;;;;2068838;28;20033;-86
2023/09/12 02:54:30;;;;;;;11.40;10.02;;;;;;;;;;2070323;28;20026;-87
2023/09/12 02:55:51;;;;;;;12.35;11.00;;;;;;;;;;2067719;28;20125;-87
2023/09/12 02:57:10;;;;;;;10.70;9.60;;;;;;;;;;2065623;28;20511;-87
2023/09/12 02:58:29;;;;;;;11.02;10.05;;;;;;;;;;2066932;28;20466;-81
2023/09/12 02:59:48;;;;;;;10.20;9.27;;;;;;;;;;2073348;28;20025;-87
2023/09/12 03:01:07;;;;;;;13.32;10.27;;;;;;;;;;2076700;28;20057;-87
2023/09/12 03:02:29;;;;;;;10.65;9.55;;;;;;;;;;2067973;28;20053;-87
2023/09/12 03:03:48;;;;;;;11.30;10.32;;;;;;;;;;2070997;28;20042;-89
2023/09/12 03:05:08;;;;;;;11.05;9.45;;;;;;;;;;2071494;28;20034;-87
2023/09/12 03:06:28;;;;;;;12.80;11.00;;;;;;;;;;2074088;28;20125;-86
2023/09/12 03:07:47;;;;;;;11.15;10.15;;;;;;;;;;2077482;28;20390;-82
2023/09/12 03:09:06;;;;;;;11.50;10.45;;;;;;;;;;2075511;28;20030;-86
2023/09/12 03:10:25;;;;;;;15.68;10.85;;;;;;;;;;2078074;28;20034;-86
2023/09/12 03:11:44;;;;;;;10.50;9.60;;;;;;;;;;2075037;28;20030;-87
2023/09/12 03:13:03;;;;;;;11.40;10.20;;;;;;;;;;2070735;28;20022;-85
2023/09/12 03:14:23;;;;;;;11.30;10.20;;;;;;;;;;2068544;28;20081;-84
2023/09/12 03:15:42;;;;;;;10.80;9.75;;;;;;;;;;2075807;28;20033;-85
2023/09/12 03:17:01;;;;;;;12.20;10.68;;;;;;;;;;2067993;28;20030;-86
2023/09/12 03:18:20;;;;;;;15.27;10.98;;;;;;;;;;2066907;28;20026;-84
2023/09/12 03:19:39;;;;;;;13.52;11.55;;;;;;;;;;2073367;28;20068;-81
2023/09/12 03:21:00;;;;;;;11.18;10.18;;;;;;;;;;2069136;28;20026;-81
2023/09/12 03:22:19;;;;;;;24.98;11.35;;;;;;;;;;2071032;28;20116;-83
2023/09/12 03:23:38;;;;;;;12.15;10.52;;;;;;;;;;2069120;28;20117;-79
2023/09/12 03:24:57;;;;;;;15.20;10.93;;;;;;;;;;2074921;28;20089;-79
2023/09/12 03:26:16;;;;;;;15.38;11.30;;;;;;;;;;2075611;28;20034;-80
2023/09/12 03:27:35;;;;;;;14.95;10.70;;;;;;;;;;2071343;28;20026;-79
2023/09/12 03:28:55;;;;;;;11.73;10.60;;;;;;;;;;2081320;28;20033;-81
2023/09/12 03:30:14;;;;;;;11.13;10.02;;;;;;;;;;2083348;28;20034;-82
2023/09/12 03:31:35;;;;;;;16.58;11.65;;;;;;;;;;2076860;28;20034;-80
2023/09/12 03:32:53;;;;;;;12.98;11.57;;;;;;;;;;2076659;28;20026;-84
2023/09/12 03:34:13;;;;;;;13.05;11.68;;;;;;;;;;2078088;28;20033;-83
2023/09/12 03:35:32;;;;;;;12.18;10.90;;;;;;;;;;2072636;28;20026;-85
2023/09/12 03:36:51;;;;;;;12.43;10.50;;;;;;;;;;2072880;28;20046;-86
2023/09/12 03:38:10;;;;;;;11.18;9.88;;;;;;;;;;2078866;28;20029;-86
2023/09/12 03:39:29;;;;;;;12.50;10.98;;;;;;;;;;2075462;28;20061;-87
2023/09/12 03:40:48;;;;;;;11.50;10.35;;;;;;;;;;2063979;28;20042;-85
2023/09/12 03:42:07;;;;;;;19.23;10.48;;;;;;;;;;2066279;28;20089;-83
2023/09/12 03:43:26;;;;;;;11.32;10.18;;;;;;;;;;2071249;28;20057;-83
2023/09/12 03:44:45;;;;;;;11.00;9.48;;;;;;;;;;2062518;28;20704;-83
2023/09/12 03:46:04;;;;;;;10.77;9.13;;;;;;;;;;2056611;28;20039;-83
2023/09/12 03:47:23;;;;;;;10.60;9.50;;;;;;;;;;2059111;28;20035;-82
2023/09/12 03:48:42;;;;;;;10.43;8.88;;;;;;;;;;2057244;28;20046;-82
2023/09/12 03:50:02;;;;;;;9.68;8.77;;;;;;;;;;2057686;28;20030;-84
2023/09/12 03:51:21;;;;;;;10.15;9.32;;;;;;;;;;2059722;28;20031;-84
2023/09/12 03:52:40;;;;;;;10.02;9.02;;;;;;;;;;2060709;28;20027;-84
2023/09/12 03:53:59;;;;;;;13.15;9.85;;;;;;;;;;2064987;28;20034;-85
2023/09/12 03:55:18;;;;;;;11.15;10.10;;;;;;;;;;2067898;28;20026;-86
2023/09/12 03:56:37;;;;;;;11.85;10.75;;;;;;;;;;2061258;28;20656;-87
2023/09/12 03:57:57;;;;;;;9.57;8.88;;;;;;;;;;2061409;28;20035;-81
2023/09/12 03:59:16;;;;;;;14.80;10.05;;;;;;;;;;2061466;28;20043;-82
2023/09/12 04:00:35;;;;;;;12.93;10.63;;;;;;;;;;2059502;28;20658;-85
2023/09/12 04:01:55;;;;;;;10.73;9.68;;;;;;;;;;2062216;28;20030;-84
2023/09/12 04:03:16;;;;;;;11.15;9.82;;;;;;;;;;2059314;28;20037;-86
2023/09/12 04:04:35;;;;;;;14.10;10.07;;;;;;;;;;2065629;28;20022;-84
2023/09/12 04:05:54;;;;;;;9.93;8.90;;;;;;;;;;2062106;28;20022;-88
2023/09/12 04:07:13;;;;;;;10.18;9.43;;;;;;;;;;2065735;28;20018;-87
2023/09/12 04:08:32;;;;;;;9.68;8.88;;;;;;;;;;2064555;28;20027;-86
2023/09/12 04:09:51;;;;;;;10.98;9.88;;;;;;;;;;2069730;28;20077;-86
2023/09/12 04:11:11;;;;;;;10.50;8.60;;;;;;;;;;2062014;28;20046;-86
2023/09/12 04:12:30;;;;;;;18.13;9.52;;;;;;;;;;2061766;28;20034;-87
2023/09/12 04:13:49;;;;;;;11.98;9.02;;;;;;;;;;2060257;28;20038;-87
2023/09/12 04:15:08;;;;;;;8.88;8.27;;;;;;;;;;2061598;28;20365;-86
2023/09/12 04:16:27;;;;;;;12.07;9.02;;;;;;;;;;2058801;28;20026;-85
2023/09/12 04:17:46;;;;;;;10.15;9.32;;;;;;;;;;2059940;28;20090;-86
2023/09/12 04:19:05;;;;;;;9.60;8.90;;;;;;;;;;2064372;28;20131;-84
2023/09/12 04:20:24;;;;;;;7.88;7.38;;;;;;;;;;2063251;28;20034;-85
2023/09/12 04:21:43;;;;;;;10.52;9.73;;;;;;;;;;2058750;28;20035;-87
2023/09/12 04:23:03;;;;;;;11.68;9.88;;;;;;;;;;2060981;28;20019;-84
2023/09/12 04:24:22;;;;;;;18.85;10.13;;;;;;;;;;2060857;28;20134;-85
2023/09/12 04:25:43;;;;;;;9.52;8.68;;;;;;;;;;2070838;28;20049;-84
2023/09/12 04:27:03;;;;;;;10.02;8.80;;;;;;;;;;2064621;28;20451;-85
2023/09/12 04:28:22;;;;;;;9.32;8.48;;;;;;;;;;2056291;28;20019;-85
2023/09/12 04:29:41;;;;;;;9.75;8.82;;;;;;;;;;2058496;28;20027;-85
2023/09/12 04:31:00;;;;;;;9.77;8.85;;;;;;;;;;2060104;28;20030;-85
2023/09/12 04:32:23;;;;;;;10.75;8.75;;;;;;;;;;2053953;28;20031;-85
2023/09/12 04:33:42;;;;;;;9.63;8.77;;;;;;;;;;2056596;28;20039;-85
2023/09/12 04:35:01;;;;;;;12.32;9.35;;;;;;;;;;2059309;28;20034;-85
2023/09/12 04:36:20;;;;;;;9.32;8.48;;;;;;;;;;2064850;28;20034;-81
2023/09/12 04:37:39;;;;;;;10.15;9.32;;;;;;;;;;2066597;28;20041;-81
2023/09/12 04:38:59;;;;;;;11.55;9.40;;;;;;;;;;2062550;28;20395;-80
2023/09/12 04:40:18;;;;;;;10.88;9.95;;;;;;;;;;2058052;28;20052;-80
2023/09/12 04:41:37;;;;;;;8.77;7.93;;;;;;;;;;2058859;28;20046;-81
2023/09/12 04:42:56;;;;;;;13.90;9.85;;;;;;;;;;2059275;28;20026;-81
2023/09/12 04:44:15;;;;;;;10.68;9.05;;;;;;;;;;2058332;28;20039;-80
2023/09/12 04:45:34;;;;;;;10.20;9.30;;;;;;;;;;2064380;28;20097;-81
2023/09/12 04:46:53;;;;;;;13.38;9.40;;;;;;;;;;2064722;28;20022;-80
2023/09/12 04:48:12;;;;;;;10.45;9.55;;;;;;;;;;2073109;28;20736;-79
2023/09/12 04:49:31;;;;;;;10.52;9.48;;;;;;;;;;2067250;28;20025;-80
2023/09/12 04:50:50;;;;;;;11.38;8.77;;;;;;;;;;2061412;28;20031;-82
2023/09/12 04:52:09;;;;;;;12.35;9.65;;;;;;;;;;2062563;28;20559;-81
2023/09/12 04:53:34;;;;;;;10.68;9.57;;;;;;;;;;2068113;28;20034;-82
2023/09/12 04:54:53;;;;;;;10.35;9.32;;;;;;;;;;2065640;28;20042;-81
2023/09/12 04:56:12;;;;;;;9.75;8.77;;;;;;;;;;2067974;28;20034;-80
2023/09/12 04:57:31;;;;;;;10.25;9.15;;;;;;;;;;2065333;28;20030;-79
2023/09/12 04:58:51;;;;;;;9.90;9.00;;;;;;;;;;2066701;28;20026;-80
2023/09/12 05:00:11;;;;;;;9.75;8.82;;;;;;;;;;2065413;28;20411;-80
2023/09/12 05:01:30;;;;;;;10.48;8.32;;;;;;;;;;2067540;28;20116;-83
2023/09/12 05:02:49;;;;;;;9.77;8.82;;;;;;;;;;2065770;28;20042;-81
2023/09/12 05:04:09;;;;;;;9.52;8.70;;;;;;;;;;2069278;28;20042;-82
2023/09/12 05:05:28;;;;;;;9.77;9.07;;;;;;;;;;2067093;28;20049;-83
2023/09/12 05:06:49;;;;;;;9.52;8.68;;;;;;;;;;2075486;28;20027;-83
2023/09/12 05:08:09;;;;;;;10.15;8.65;;;;;;;;;;2070310;28;20026;-79
2023/09/12 05:09:28;;;;;;;9.55;8.75;;;;;;;;;;2066704;28;20061;-79
2023/09/12 05:10:47;;;;;;;9.70;8.88;;;;;;;;;;2068180;28;20026;-78
2023/09/12 05:12:06;;;;;;;9.90;8.90;;;;;;;;;;2067113;28;20026;-78
2023/09/12 05:13:25;;;;;;;12.95;9.48;;;;;;;;;;2069337;28;20031;-79
2023/09/12 05:14:44;;;;;;;8.10;7.50;;;;;;;;;;2063542;28;20022;-77
2023/09/12 05:16:03;;;;;;;9.63;8.70;;;;;;;;;;2067115;28;20156;-78
2023/09/12 05:17:22;;;;;;;9.63;8.93;;;;;;;;;;2074383;28;20410;-77
2023/09/12 05:18:41;;;;;;;9.43;8.77;;;;;;;;;;2068845;28;20026;-77
2023/09/12 05:20:00;;;;;;;9.85;8.95;;;;;;;;;;2065299;28;20112;-78
2023/09/12 05:21:18;;;;;;;11.15;9.38;;;;;;;;;;2060712;28;20034;-79
2023/09/12 05:22:37;;;;;;;10.30;9.32;;;;;;;;;;2064053;28;20033;-79
2023/09/12 05:23:56;;;;;;;9.95;8.95;;;;;;;;;;2064466;28;20038;-82
2023/09/12 05:25:15;;;;;;;9.75;8.85;;;;;;;;;;2072298;28;20052;-80
2023/09/12 05:26:34;;;;;;;10.88;9.10;;;;;;;;;;2070229;28;20117;-79
2023/09/12 05:27:54;;;;;;;10.45;9.60;;;;;;;;;;2066970;28;20023;-80
2023/09/12 05:29:13;;;;;;;12.07;8.82;;;;;;;;;;2066765;28;20026;-81
2023/09/12 05:30:32;;;;;;;9.95;8.95;;;;;;;;;;2067630;28;20035;-83
2023/09/12 05:31:51;;;;;;;10.30;9.30;;;;;;;;;;2063274;28;20511;-81
2023/09/12 05:33:10;;;;;;;10.00;9.13;;;;;;;;;;2064080;28;20050;-79
2023/09/12 05:34:29;;;;;;;11.60;8.80;;;;;;;;;;2068140;28;20509;-81
2023/09/12 05:35:48;;;;;;;9.55;8.70;;;;;;;;;;2063778;28;20030;-82
2023/09/12 05:37:07;;;;;;;10.13;9.32;;;;;;;;;;2074675;28;20026;-82
2023/09/12 05:38:26;;;;;;;9.70;8.95;;;;;;;;;;2066049;28;20057;-82
2023/09/12 05:39:45;;;;;;;9.07;8.27;;;;;;;;;;2066483;28;20026;-80
2023/09/12 05:41:04;;;;;;;9.52;8.65;;;;;;;;;;2072733;28;20030;-81
2023/09/12 05:42:22;;;;;;;9.35;8.55;;;;;;;;;;2067571;28;20069;-80
2023/09/12 05:43:41;;;;;;;9.52;8.70;;;;;;;;;;2063145;28;20034;-78
2023/09/12 05:45:00;;;;;;;9.07;8.48;;;;;;;;;;2065859;28;20030;-80
2023/09/12 05:46:19;;;;;;;8.45;7.85;;;;;;;;;;2066973;28;20053;-79
2023/09/12 05:47:38;;;;;;;9.18;8.48;;;;;;;;;;2066965;28;20069;-79
2023/09/12 05:48:57;;;;;;;8.70;8.00;;;;;;;;;;2064832;28;20038;-79
2023/09/12 05:50:16;;;;;;;8.00;7.30;;;;;;;;;;2066287;28;20204;-81
2023/09/12 05:51:35;;;;;;;10.13;7.32;;;;;;;;;;2064664;28;20484;-80
2023/09/12 05:52:54;;;;;;;7.15;6.63;;;;;;;;;;2069819;28;20056;-79
2023/09/12 05:54:14;;;;;;;7.47;6.85;;;;;;;;;;2069442;28;20070;-79
2023/09/12 05:55:33;;;;;;;6.88;6.47;;;;;;;;;;2076987;28;20030;-79
2023/09/12 05:56:53;;;;;;;7.28;6.78;;;;;;;;;;2065944;28;20149;-79
2023/09/12 05:58:13;;;;;;;7.88;7.28;;;;;;;;;;2066078;28;20038;-81
2023/09/12 05:59:32;;;;;;;8.10;7.28;;;;;;;;;;2065889;28;20038;-78
2023/09/12 06:00:51;;;;;;;6.90;6.50;;;;;;;;;;2064213;28;20034;-78
2023/09/12 06:02:10;;;;;;;6.57;6.18;;;;;;;;;;2064045;28;20039;-78
2023/09/12 06:03:29;;;;;;;8.52;7.88;;;;;;;;;;2066272;28;20038;-77
2023/09/12 06:04:48;;;;;;;7.13;6.63;;;;;;;;;;2064807;28;20026;-78
2023/09/12 06:06:07;;;;;;;10.95;7.97;;;;;;;;;;2065446;28;20492;-81
2023/09/12 06:07:26;;;;;;;8.10;7.40;;;;;;;;;;2065407;28;20062;-79
2023/09/12 06:08:45;;;;;;;9.55;8.70;;;;;;;;;;2063440;28;20068;-78
2023/09/12 06:10:04;;;;;;;9.27;8.48;;;;;;;;;;2066865;28;20031;-78
2023/09/12 06:11:23;;;;;;;11.30;7.93;;;;;;;;;;2068746;28;20039;-78
2023/09/12 06:12:42;;;;;;;9.57;8.77;;;;;;;;;;2069355;28;20018;-78
2023/09/12 06:14:01;;;;;;;9.88;8.90;;;;;;;;;;2069270;28;20430;-78
2023/09/12 06:15:20;;;;;;;9.80;8.95;;;;;;;;;;2072682;28;20037;-79
2023/09/12 06:16:39;;;;;;;9.65;8.77;;;;;;;;;;2068324;28;20030;-78
2023/09/12 06:17:58;;;;;;;9.43;8.60;;;;;;;;;;2073816;28;20450;-79
2023/09/12 06:19:19;;;;;;;9.82;8.88;;;;;;;;;;2071756;28;20043;-78
2023/09/12 06:20:39;;;;;;;10.93;9.95;;;;;;;;;;2066296;28;20026;-79
2023/09/12 06:21:58;;;;;;;9.88;9.18;;;;;;;;;;2076438;28;20037;-79
2023/09/12 06:23:18;;;;;;;9.93;8.98;;;;;;;;;;2069607;28;20033;-79
2023/09/12 06:24:39;;;;;;;11.80;10.13;;;;;;;;;;2068652;28;20097;-79
2023/09/12 06:25:58;;;;;;;10.80;9.80;;;;;;;;;;2064846;28;20385;-79
2023/09/12 06:27:18;;;;;;;10.50;9.60;;;;;;;;;;2069415;28;20034;-78
2023/09/12 06:28:37;;;;;;;10.93;9.93;;;;;;;;;;2068064;28;20101;-79
2023/09/12 06:29:56;;;;;;;12.88;10.23;;;;;;;;;;2066052;28;20015;-78
2023/09/12 06:31:15;;;;;;;11.57;10.45;;;;;;;;;;2064481;28;20030;-79
2023/09/12 06:32:36;;;;;;;11.73;10.68;;;;;;;;;;2062984;28;20117;-80
2023/09/12 06:33:56;;;;;;;11.40;10.35;;;;;;;;;;2063121;28;20031;-80
2023/09/12 06:35:14;;;;;;;14.50;10.88;;;;;;;;;;2068274;28;20030;-79
2023/09/12 06:36:34;;;;;;;14.90;11.18;;;;;;;;;;2069349;28;20045;-80
2023/09/12 06:37:55;;;;;;;11.65;10.40;;;;;;;;;;2066221;28;20053;-79
2023/09/12 06:39:15;;;;;;;11.77;10.67;;;;;;;;;;2068275;28;20034;-80
2023/09/12 06:40:34;;;;;;;11.88;10.77;;;;;;;;;;2068225;28;20232;-80
2023/09/12 06:41:52;;;;;;;10.27;9.27;;;;;;;;;;2063965;28;20463;-80
2023/09/12 06:43:11;;;;;;;11.95;10.23;;;;;;;;;;2070950;28;20430;-79
2023/09/12 06:44:30;;;;;;;13.82;12.43;;;;;;;;;;2058809;28;20031;-79
2023/09/12 06:45:50;;;;;;;14.13;12.10;;;;;;;;;;2063144;28;20072;-80
2023/09/12 06:47:10;;;;;;;11.32;10.32;;;;;;;;;;2072986;28;20017;-80
2023/09/12 06:48:29;;;;;;;12.93;11.63;;;;;;;;;;2065660;28;20021;-80
2023/09/12 06:49:48;;;;;;;14.68;13.15;;;;;;;;;;2066661;28;20042;-78
2023/09/12 06:51:08;;;;;;;15.18;13.30;;;;;;;;;;2068340;28;20031;-79
2023/09/12 06:52:27;;;;;;;15.63;13.00;;;;;;;;;;2068990;28;20062;-79
2023/09/12 06:53:48;;;;;;;12.23;11.05;;;;;;;;;;2068894;28;20038;-79
2023/09/12 06:55:07;;;;;;;14.23;12.88;;;;;;;;;;2068245;28;20034;-80
2023/09/12 06:56:27;;;;;;;15.65;14.15;;;;;;;;;;2067875;28;20030;-80
2023/09/12 06:57:46;;;;;;;14.27;12.82;;;;;;;;;;2065843;28;20034;-79
2023/09/12 06:59:05;;;;;;;14.57;13.02;;;;;;;;;;2070195;28;21264;-80
2023/09/12 07:00:26;;;;;;;16.08;12.75;;;;;;;;;;2074089;28;20023;-79
2023/09/12 07:01:45;;;;;;;13.45;12.07;;;;;;;;;;2076084;28;20010;-79
2023/09/12 07:03:04;;;;;;;17.05;13.80;;;;;;;;;;2078972;28;20026;-79
2023/09/12 07:04:24;;;;;;;14.90;11.82;;;;;;;;;;2078887;28;20085;-79
2023/09/12 07:05:43;;;;;;;13.35;12.15;;;;;;;;;;2074245;28;20052;-79
2023/09/12 07:07:02;;;;;;;12.52;11.45;;;;;;;;;;2073261;28;20030;-78
2023/09/12 07:08:21;;;;;;;16.15;12.48;;;;;;;;;;2075093;28;20053;-79
2023/09/12 07:09:40;;;;;;;14.65;12.15;;;;;;;;;;2071225;28;20063;-80
2023/09/12 07:11:05;;;;;;;13.65;12.40;;;;;;;;;;2070180;28;20030;-79
2023/09/12 07:12:24;;;;;;;13.40;12.10;;;;;;;;;;2068043;28;20022;-79
2023/09/12 07:13:43;;;;;;;13.32;11.98;;;;;;;;;;2071234;28;20037;-80
2023/09/12 07:15:02;;;;;;;14.68;12.55;;;;;;;;;;2067887;28;20073;-79
2023/09/12 07:16:21;;;;;;;12.75;11.55;;;;;;;;;;2075935;28;20030;-79
2023/09/12 07:17:39;;;;;;;12.68;11.57;;;;;;;;;;2073868;28;20514;-79
2023/09/12 07:18:58;;;;;;;13.25;12.10;;;;;;;;;;2069993;28;20050;-80
2023/09/12 07:20:17;;;;;;;12.13;11.13;;;;;;;;;;2066811;28;20492;-79
2023/09/12 07:21:37;;;;;;;13.50;12.30;;;;;;;;;;2068943;28;20026;-80
2023/09/12 07:22:55;;;;;;;13.60;12.02;;;;;;;;;;2068333;28;20030;-79
2023/09/12 07:24:14;;;;;;;12.07;10.98;;;;;;;;;;2065319;28;20046;-79
2023/09/12 07:25:40;;;;;;;11.65;10.63;;;;;;;;;;2066592;28;20057;-80
2023/09/12 07:26:59;;;;;;;11.93;10.75;;;;;;;;;;2072410;28;20049;-79
2023/09/12 07:28:18;;;;;;;13.13;12.00;;;;;;;;;;2067198;28;20061;-78
2023/09/12 07:29:37;;;;;;;12.85;11.63;;;;;;;;;;2066980;28;20022;-80
2023/09/12 07:30:57;;;;;;;13.38;12.18;;;;;;;;;;2067099;28;20042;-79
2023/09/12 07:32:15;;;;;;;12.13;10.98;;;;;;;;;;2064785;28;20049;-78
2023/09/12 07:33:34;;;;;;;12.45;10.57;;;;;;;;;;2066520;28;20496;-79
2023/09/12 07:34:53;;;;;;;12.15;11.10;;;;;;;;;;2075525;28;20202;-79
2023/09/12 07:36:14;;;;;;;12.77;11.68;;;;;;;;;;2071965;28;20057;-79
2023/09/12 07:37:33;;;;;;;15.32;13.50;;;;;;;;;;2066438;28;20034;-79
2023/09/12 07:38:52;;;;;;;14.98;13.32;;;;;;;;;;2065695;28;20505;-79
2023/09/12 07:40:11;;;;;;;14.52;13.23;;;;;;;;;;2068827;28;20033;-79
2023/09/12 07:41:30;;;;;;;14.88;13.38;;;;;;;;;;2067382;28;20057;-80
2023/09/12 07:42:49;;;;;;;13.70;12.55;;;;;;;;;;2071463;28;20041;-79
2023/09/12 07:44:10;;;;;;;14.70;13.18;;;;;;;;;;2068857;28;20034;-80
2023/09/12 07:45:31;;;;;;;13.15;11.40;;;;;;;;;;2069112;28;20034;-80
2023/09/12 07:46:49;;;;;;;13.15;11.88;;;;;;;;;;2075068;28;21215;-80
2023/09/12 07:48:09;;;;;;;11.98;10.77;;;;;;;;;;2073133;28;20030;-79